createdAt,value
2022-08-18T00:01:14.557Z,88.50
2022-08-18T00:03:56.795Z,88.50
2022-08-18T00:06:29.289Z,88.40
2022-08-18T00:09:03.076Z,88.40
2022-08-18T00:11:40.933Z,88.40
2022-08-18T00:14:21.252Z,88.60
2022-08-18T00:16:51.486Z,88.40
2022-08-18T00:19:18.404Z,88.60
2022-08-18T00:21:45.313Z,89.00
2022-08-18T00:24:12.229Z,89.20
2022-08-18T00:26:39.138Z,89.20
2022-08-18T00:29:08.508Z,89.30
2022-08-18T00:31:35.603Z,89.60
2022-08-18T00:34:02.592Z,90.20
2022-08-18T00:36:32.079Z,90.50
2022-08-18T00:38:59.018Z,90.70
2022-08-18T00:41:26.655Z,91.10
2022-08-18T00:43:55.506Z,91.50
2022-08-18T00:46:30.287Z,91.60
2022-08-18T00:48:58.009Z,92.30
2022-08-18T00:51:46.771Z,92.10
2022-08-18T00:54:25.709Z,92.40
2022-08-18T00:56:59.036Z,92.40
2022-08-18T00:59:51.754Z,92.40
2022-08-18T01:02:29.526Z,93.20
2022-08-18T01:05:00.020Z,93.30
2022-08-18T01:07:35.803Z,94.00
2022-08-18T01:10:05.469Z,94.30
2022-08-18T01:12:46.449Z,94.40
2022-08-18T01:15:29.092Z,93.50
2022-08-18T01:18:24.739Z,91.10
2022-08-18T01:21:39.527Z,91.60
2022-08-18T01:24:10.295Z,92.60
2022-08-18T01:26:44.345Z,92.10
2022-08-18T01:29:19.240Z,92.70
2022-08-18T01:31:56.103Z,92.70
2022-08-18T01:34:27.475Z,92.80
2022-08-18T01:36:55.212Z,92.70
2022-08-18T01:41:22.509Z,92.70
2022-08-18T01:42:10.611Z,92.70
2022-08-18T01:44:41.542Z,92.90
2022-08-18T01:47:11.512Z,93.00
2022-08-18T01:49:43.062Z,93.40
2022-08-18T01:52:17.918Z,93.20
2022-08-18T01:54:44.879Z,93.30
2022-08-18T01:57:13.414Z,92.90
2022-08-18T01:59:42.595Z,92.50
2022-08-18T02:02:18.160Z,92.60
2022-08-18T02:04:47.445Z,92.60
2022-08-18T02:07:14.979Z,91.40
2022-08-18T02:09:43.526Z,91.30
2022-08-18T02:12:10.750Z,91.20
2022-08-18T02:14:38.377Z,91.00
2022-08-18T02:17:09.191Z,91.00
2022-08-18T02:19:44.489Z,90.80
2022-08-18T02:22:15.504Z,90.90
2022-08-18T02:24:43.119Z,90.60
2022-08-18T02:27:12.081Z,90.90
2022-08-18T02:29:39.272Z,91.60
2022-08-18T02:32:07.387Z,91.90
2022-08-18T02:34:34.866Z,91.80
2022-08-18T02:37:02.153Z,92.10
2022-08-18T02:39:30.358Z,92.30
2022-08-18T02:41:57.410Z,92.20
2022-08-18T02:44:24.347Z,92.20
2022-08-18T02:46:54.813Z,92.30
2022-08-18T02:49:22.106Z,92.30
2022-08-18T02:51:51.098Z,92.70
2022-08-18T02:54:20.604Z,92.60
2022-08-18T02:56:47.644Z,92.50
2022-08-18T02:59:19.908Z,92.50
2022-08-18T03:01:51.366Z,92.70
2022-08-18T03:04:28.551Z,92.80
2022-08-18T03:06:58.484Z,92.90
2022-08-18T03:09:25.991Z,92.90
2022-08-18T03:11:53.528Z,92.90
2022-08-18T03:14:20.670Z,93.20
2022-08-18T03:16:54.814Z,92.90
2022-08-18T03:19:28.223Z,93.10
2022-08-18T03:21:58.180Z,93.20
2022-08-18T03:24:27.899Z,93.10
2022-08-18T03:26:59.499Z,93.10
2022-08-18T03:29:31.318Z,93.10
2022-08-18T03:32:02.044Z,93.00
2022-08-18T03:34:29.708Z,92.80
2022-08-18T03:36:58.221Z,92.90
2022-08-18T03:39:27.601Z,92.90
2022-08-18T03:41:57.909Z,92.80
2022-08-18T03:44:28.858Z,93.20
2022-08-18T03:46:55.838Z,92.70
2022-08-18T03:49:22.743Z,92.90
2022-08-18T03:51:51.617Z,93.00
2022-08-18T03:54:19.060Z,92.90
2022-08-18T03:56:49.265Z,92.90
2022-08-18T03:59:20.897Z,93.00
2022-08-18T04:01:50.659Z,93.50
2022-08-18T04:04:22.963Z,93.50
2022-08-18T04:06:59.987Z,93.80
2022-08-18T04:09:29.402Z,94.10
2022-08-18T04:11:58.893Z,94.10
2022-08-18T04:14:32.973Z,94.20
2022-08-18T04:17:00.264Z,94.50
2022-08-18T04:19:28.082Z,94.70
2022-08-18T04:21:57.965Z,94.80
2022-08-18T04:24:28.183Z,94.90
2022-08-18T04:26:57.362Z,95.00
2022-08-18T04:29:24.698Z,94.90
2022-08-18T04:31:52.118Z,95.00
2022-08-18T04:34:22.638Z,95.00
2022-08-18T04:36:53.845Z,95.00
2022-08-18T04:39:22.572Z,95.00
2022-08-18T04:41:49.671Z,95.20
2022-08-18T04:44:18.214Z,95.30
2022-08-18T04:46:53.854Z,95.30
2022-08-18T04:49:26.099Z,95.40
2022-08-18T04:52:26.722Z,95.50
2022-08-18T04:55:01.666Z,95.40
2022-08-18T04:57:29.140Z,95.30
2022-08-18T05:00:00.666Z,95.10
2022-08-18T05:02:28.052Z,95.00
2022-08-18T05:04:55.013Z,94.90
2022-08-18T05:07:23.027Z,94.80
2022-08-18T05:09:50.869Z,94.70
2022-08-18T05:12:17.939Z,94.70
2022-08-18T05:14:48.107Z,94.50
2022-08-18T05:17:16.091Z,94.60
2022-08-18T05:19:44.601Z,94.60
2022-08-18T05:22:17.789Z,94.80
2022-08-18T05:24:46.349Z,94.80
2022-08-18T05:27:13.660Z,94.70
2022-08-18T05:29:45.689Z,94.70
2022-08-18T05:32:41.066Z,95.00
2022-08-18T05:35:07.572Z,94.90
2022-08-18T05:38:27.962Z,94.90
2022-08-18T05:41:14.295Z,94.30
2022-08-18T05:43:51.456Z,94.20
2022-08-18T05:46:22.416Z,94.10
2022-08-18T05:48:49.944Z,94.10
2022-08-18T05:51:35.597Z,94.10
2022-08-18T05:54:23.292Z,93.80
2022-08-18T05:56:54.633Z,93.30
2022-08-18T05:59:31.641Z,92.90
2022-08-18T06:02:13.569Z,92.80
2022-08-18T06:04:57.197Z,92.60
2022-08-18T06:07:53.804Z,92.80
2022-08-18T06:10:20.966Z,93.30
2022-08-18T06:12:58.038Z,93.20
2022-08-18T06:15:31.336Z,93.40
2022-08-18T06:18:52.813Z,93.40
2022-08-18T06:22:05.473Z,93.40
2022-08-18T06:25:01.448Z,93.40
2022-08-18T06:28:03.052Z,93.80
2022-08-18T06:30:42.045Z,94.00
2022-08-18T06:33:47.029Z,94.20
2022-08-18T06:36:38.142Z,94.30
2022-08-18T06:39:21.317Z,93.90
2022-08-18T06:41:50.920Z,93.50
2022-08-18T06:44:45.693Z,93.30
2022-08-18T06:47:26.185Z,93.10
2022-08-18T06:50:33.402Z,93.20
2022-08-18T06:53:06.848Z,92.90
2022-08-18T06:55:53.004Z,92.90
2022-08-18T06:58:26.974Z,92.90
2022-08-18T07:00:56.129Z,93.20
2022-08-18T07:03:35.338Z,93.30
2022-08-18T07:06:23.705Z,93.50
2022-08-18T07:08:53.878Z,92.70
2022-08-18T07:11:30.429Z,92.80
2022-08-18T07:14:22.740Z,92.70
2022-08-18T07:17:04.862Z,92.70
2022-08-18T07:19:32.436Z,92.80
2022-08-18T07:22:13.934Z,92.50
2022-08-18T07:24:54.431Z,91.90
2022-08-18T07:27:41.394Z,91.50
2022-08-18T07:30:27.866Z,91.20
2022-08-18T07:33:03.208Z,91.40
2022-08-18T07:36:03.674Z,91.50
2022-08-18T07:38:45.331Z,91.50
2022-08-18T07:41:22.724Z,91.30
2022-08-18T07:43:52.186Z,91.00
2022-08-18T07:46:51.042Z,90.90
2022-08-18T07:49:24.809Z,91.00
2022-08-18T07:52:36.091Z,90.30
2022-08-18T07:55:29.847Z,90.30
2022-08-18T07:58:03.308Z,90.40
2022-08-18T08:03:42.789Z,90.70
2022-08-18T08:06:22.701Z,90.60
2022-08-18T08:09:35.684Z,89.20
2022-08-18T08:12:42.385Z,87.30
2022-08-18T08:15:43.388Z,87.10
2022-08-18T08:18:25.083Z,88.00
2022-08-18T08:21:04.613Z,87.50
2022-08-18T08:23:47.960Z,87.30
2022-08-18T08:26:57.172Z,87.30
2022-08-18T08:29:39.514Z,86.00
2022-08-18T08:32:29.813Z,86.50
2022-08-18T08:35:11.529Z,85.80
2022-08-18T08:38:39.354Z,85.30
2022-08-18T08:41:03.434Z,83.70
2022-08-18T08:43:37.636Z,83.00
2022-08-18T08:46:18.982Z,83.90
2022-08-18T08:49:04.128Z,82.80
2022-08-18T08:51:59.102Z,82.10
2022-08-18T08:54:38.344Z,81.40
2022-08-18T08:57:05.941Z,80.40
2022-08-18T08:59:39.279Z,80.60
2022-08-18T09:02:06.090Z,80.70
2022-08-18T09:05:17.555Z,80.70
2022-08-18T09:08:18.941Z,79.80
2022-08-18T09:11:00.496Z,78.80
2022-08-18T09:14:03.632Z,79.40
2022-08-18T09:17:00.703Z,78.90
2022-08-18T09:20:01.536Z,77.90
2022-08-18T09:23:05.078Z,77.50
2022-08-18T09:25:39.344Z,77.50
2022-08-18T09:28:30.304Z,77.40
2022-08-18T09:31:03.248Z,76.10
2022-08-18T09:33:45.440Z,74.80
2022-08-18T09:37:12.758Z,75.10
2022-08-18T09:40:33.515Z,73.60
2022-08-18T09:43:31.596Z,74.20
2022-08-18T09:46:00.910Z,74.60
2022-08-18T09:50:38.067Z,75.30
2022-08-18T09:51:40.061Z,74.60
2022-08-18T09:54:25.203Z,73.30
2022-08-18T09:56:54.190Z,72.70
2022-08-18T09:59:34.953Z,72.10
2022-08-18T10:02:32.452Z,69.90
2022-08-18T10:05:19.026Z,69.90
2022-08-18T10:08:06.769Z,69.80
2022-08-18T10:14:26.261Z,69.20
2022-08-18T10:20:34.738Z,67.10
2022-08-18T10:23:04.434Z,69.10
2022-08-18T10:25:46.586Z,69.60
2022-08-18T10:29:05.682Z,67.50
2022-08-18T10:31:58.556Z,65.10
2022-08-18T10:37:43.617Z,63.10
2022-08-18T10:40:13.312Z,65.00
2022-08-18T10:42:49.769Z,64.70
2022-08-18T10:45:27.062Z,65.60
2022-08-18T10:48:19.503Z,64.50
2022-08-18T10:51:23.392Z,65.70
2022-08-18T10:54:20.700Z,66.10
2022-08-18T10:56:57.766Z,62.90
2022-08-18T10:59:57.596Z,61.40
2022-08-18T11:03:02.645Z,60.00
2022-08-18T11:05:42.850Z,60.00
2022-08-18T11:08:20.019Z,59.30
2022-08-18T11:11:27.583Z,59.00
2022-08-18T11:14:23.652Z,57.30
2022-08-18T11:17:26.959Z,56.90
2022-08-18T11:19:55.436Z,58.20
2022-08-18T11:22:34.275Z,57.50
2022-08-18T11:25:29.068Z,56.90
2022-08-18T11:27:56.979Z,58.50
2022-08-18T11:30:31.473Z,58.70
2022-08-18T11:33:02.788Z,58.50
2022-08-18T11:35:45.830Z,56.30
2022-08-18T11:38:20.771Z,56.50
2022-08-18T11:41:12.605Z,57.90
2022-08-18T11:43:43.045Z,58.80
2022-08-18T11:46:41.558Z,59.10
2022-08-18T11:49:33.414Z,59.00
2022-08-18T11:52:19.831Z,59.50
2022-08-18T11:55:14.530Z,55.90
2022-08-18T11:57:58.572Z,56.40
2022-08-18T12:03:46.219Z,56.80
2022-08-18T12:06:26.670Z,56.60
2022-08-18T12:08:58.899Z,56.50
2022-08-18T12:11:41.310Z,56.20
2022-08-18T12:14:29.846Z,56.80
2022-08-18T12:17:00.004Z,55.40
2022-08-18T12:19:30.772Z,56.00
2022-08-18T12:22:01.651Z,56.30
2022-08-18T12:24:36.669Z,56.60
2022-08-18T12:27:20.921Z,57.00
2022-08-18T12:29:50.408Z,56.50
2022-08-18T12:32:49.666Z,57.30
2022-08-18T12:35:09.266Z,57.30
2022-08-18T12:40:25.744Z,57.40
2022-08-18T12:42:55.746Z,57.10
2022-08-18T12:45:25.798Z,56.70
2022-08-18T12:47:54.406Z,56.20
2022-08-18T12:50:31.375Z,55.30
2022-08-18T12:53:02.507Z,54.60
2022-08-18T12:55:35.176Z,54.00
2022-08-18T12:58:05.242Z,55.00
2022-08-18T13:00:32.792Z,55.20
2022-08-18T13:02:59.959Z,55.20
2022-08-18T13:05:30.077Z,55.00
2022-08-18T13:08:04.459Z,54.80
2022-08-18T13:10:45.100Z,56.20
2022-08-18T13:13:15.480Z,56.20
2022-08-18T13:15:44.509Z,55.00
2022-08-18T13:18:28.586Z,54.30
2022-08-18T13:20:58.977Z,54.20
2022-08-18T13:23:30.593Z,54.30
2022-08-18T13:26:02.096Z,53.20
2022-08-18T13:28:35.560Z,54.00
2022-08-18T13:31:05.458Z,53.60
2022-08-18T13:33:56.413Z,54.20
2022-08-18T13:36:20.384Z,53.70
2022-08-18T13:38:50.964Z,54.20
2022-08-18T13:43:52.175Z,54.20
2022-08-18T13:46:24.234Z,54.00
2022-08-18T13:49:03.255Z,54.10
2022-08-18T13:51:31.181Z,54.00
2022-08-18T13:54:17.952Z,54.10
2022-08-18T13:56:51.684Z,54.40
2022-08-18T13:59:21.719Z,54.90
2022-08-18T14:01:53.096Z,55.20
2022-08-18T14:04:22.682Z,54.60
2022-08-18T14:06:57.519Z,54.70
2022-08-18T14:09:35.718Z,55.10
2022-08-18T14:12:27.115Z,55.50
2022-08-18T14:14:58.095Z,55.90
2022-08-18T14:17:26.545Z,56.00
2022-08-18T14:20:14.965Z,56.80
2022-08-18T14:23:08.425Z,56.60
2022-08-18T14:25:53.850Z,56.30
2022-08-18T14:28:24.687Z,56.40
2022-08-18T14:30:54.959Z,55.70
2022-08-18T14:33:49.879Z,54.40
2022-08-18T14:36:14.170Z,54.60
2022-08-18T14:38:41.749Z,54.80
2022-08-18T14:41:13.084Z,55.20
2022-08-18T14:44:04.059Z,54.30
2022-08-18T14:46:32.720Z,54.70
2022-08-18T14:49:04.311Z,54.60
2022-08-18T14:51:33.624Z,54.20
2022-08-18T14:54:02.050Z,54.20
2022-08-18T14:56:29.391Z,54.20
2022-08-18T14:58:56.848Z,54.20
2022-08-18T15:01:24.453Z,53.10
2022-08-18T15:03:51.543Z,53.40
2022-08-18T15:06:23.122Z,53.60
2022-08-18T15:08:57.026Z,53.60
2022-08-18T15:11:25.275Z,53.20
2022-08-18T15:13:54.936Z,53.00
2022-08-18T15:16:31.622Z,54.00
2022-08-18T15:19:00.391Z,52.50
2022-08-18T15:21:47.805Z,52.80
2022-08-18T15:24:34.174Z,53.20
2022-08-18T15:27:10.549Z,53.50
2022-08-18T15:29:46.567Z,53.60
2022-08-18T15:32:15.324Z,53.50
2022-08-18T15:34:47.208Z,54.00
2022-08-18T15:37:20.410Z,54.20
2022-08-18T15:40:03.269Z,54.50
2022-08-18T15:42:30.523Z,54.20
2022-08-18T15:45:11.830Z,54.40
2022-08-18T15:47:40.216Z,54.40
2022-08-18T15:50:25.416Z,54.70
2022-08-18T15:52:58.086Z,54.60
2022-08-18T15:55:29.207Z,54.40
2022-08-18T15:58:03.513Z,54.90
2022-08-18T16:00:43.827Z,54.80
2022-08-18T16:03:14.621Z,51.10
2022-08-18T16:05:51.586Z,50.40
2022-08-18T16:08:22.482Z,49.80
2022-08-18T16:10:49.835Z,49.00
2022-08-18T16:13:17.143Z,48.90
2022-08-18T16:15:48.044Z,48.90
2022-08-18T16:18:17.542Z,49.60
2022-08-18T16:20:45.293Z,49.00
2022-08-18T16:23:13.344Z,49.00
2022-08-18T16:25:42.512Z,49.20
2022-08-18T16:28:10.499Z,49.40
2022-08-18T16:30:37.406Z,49.80
2022-08-18T16:33:06.713Z,49.90
2022-08-18T16:35:35.545Z,50.20
2022-08-18T16:38:08.799Z,50.50
2022-08-18T16:40:37.383Z,50.70
2022-08-18T16:43:04.939Z,50.90
2022-08-18T16:45:33.398Z,51.00
2022-08-18T16:48:00.920Z,51.30
2022-08-18T16:50:28.429Z,51.20
2022-08-18T16:52:57.328Z,51.50
2022-08-18T16:55:24.267Z,51.40
2022-08-18T16:58:23.133Z,52.00
2022-08-18T17:01:17.816Z,52.00
2022-08-18T17:04:04.823Z,52.20
2022-08-18T17:06:47.315Z,52.80
2022-08-18T17:09:15.738Z,53.10
2022-08-18T17:11:51.273Z,53.10
2022-08-18T17:14:27.930Z,53.20
2022-08-18T17:16:55.911Z,53.80
2022-08-18T17:19:26.139Z,53.90
2022-08-18T17:21:54.110Z,53.90
2022-08-18T17:24:31.183Z,52.90
2022-08-18T17:27:26.643Z,52.20
2022-08-18T17:30:20.100Z,51.20
2022-08-18T17:33:00.609Z,51.80
2022-08-18T17:35:34.411Z,51.70
2022-08-18T17:38:11.683Z,52.70
2022-08-18T17:40:55.512Z,51.80
2022-08-18T17:43:29.118Z,52.30
2022-08-18T17:46:02.080Z,52.60
2022-08-18T17:48:40.920Z,52.80
2022-08-18T17:51:34.429Z,53.00
2022-08-18T17:54:27.662Z,53.50
2022-08-18T17:57:01.810Z,53.80
2022-08-18T17:59:45.604Z,54.00
2022-08-18T18:02:29.968Z,54.30
2022-08-18T18:05:04.875Z,54.60
2022-08-18T18:07:36.884Z,55.10
2022-08-18T18:11:03.993Z,55.20
2022-08-18T18:13:32.434Z,55.60
2022-08-18T18:16:20.536Z,55.90
2022-08-18T18:18:59.973Z,56.30
2022-08-18T18:21:55.301Z,56.40
2022-08-18T18:24:23.603Z,56.70
2022-08-18T18:26:52.125Z,57.20
2022-08-18T18:29:35.674Z,57.40
2022-08-18T18:32:24.534Z,57.90
2022-08-18T18:35:13.487Z,58.50
2022-08-18T18:37:51.639Z,59.90
2022-08-18T18:41:00.899Z,60.20
2022-08-18T18:43:33.969Z,61.00
2022-08-18T18:46:23.309Z,61.30
2022-08-18T18:49:24.151Z,61.50
2022-08-18T18:52:16.923Z,62.40
2022-08-18T18:55:18.042Z,62.10
2022-08-18T18:57:53.312Z,62.00
2022-08-18T19:00:54.110Z,62.50
2022-08-18T19:03:39.096Z,63.40
2022-08-18T19:06:29.374Z,64.10
2022-08-18T19:09:08.543Z,63.70
2022-08-18T19:11:54.019Z,63.80
2022-08-18T19:14:28.584Z,63.90
2022-08-18T19:17:25.063Z,64.30
2022-08-18T19:19:59.206Z,64.40
2022-08-18T19:22:37.085Z,64.70
2022-08-18T19:25:14.531Z,64.90
2022-08-18T19:27:50.102Z,64.90
2022-08-18T19:30:21.378Z,65.60
2022-08-18T19:33:02.445Z,65.40
2022-08-18T19:35:59.563Z,65.80
2022-08-18T19:38:35.746Z,66.10
2022-08-18T19:41:20.714Z,66.50
2022-08-18T19:44:44.250Z,66.70
2022-08-18T19:47:31.694Z,66.80
2022-08-18T19:50:16.769Z,67.00
2022-08-18T19:53:01.714Z,67.10
2022-08-18T19:56:21.505Z,67.50
2022-08-18T19:59:15.685Z,67.70
2022-08-18T20:02:29.375Z,67.80
2022-08-18T20:05:22.589Z,67.70
2022-08-18T20:08:32.318Z,67.90
2022-08-18T20:11:46.403Z,67.80
2022-08-18T20:14:18.856Z,68.20
2022-08-18T20:17:10.384Z,67.90
2022-08-18T20:20:04.227Z,68.90
2022-08-18T20:22:42.388Z,68.60
2022-08-18T20:25:16.406Z,68.40
2022-08-18T20:28:06.398Z,68.50
2022-08-18T20:31:06.085Z,68.40
2022-08-18T20:33:43.367Z,69.60
2022-08-18T20:36:28.010Z,69.50
2022-08-18T20:38:59.291Z,70.70
2022-08-18T20:41:30.064Z,70.50
2022-08-18T20:44:28.706Z,71.50
2022-08-18T20:47:34.670Z,71.60
2022-08-18T20:50:45.841Z,71.80
2022-08-18T20:53:49.860Z,72.10
2022-08-18T20:56:47.060Z,72.10
2022-08-18T20:59:24.903Z,71.70
2022-08-18T21:02:06.326Z,71.90
2022-08-18T21:04:51.949Z,71.90
2022-08-18T21:07:36.624Z,73.00
2022-08-18T21:10:20.914Z,73.00
2022-08-18T21:12:54.227Z,73.40
2022-08-18T21:15:38.073Z,73.50
2022-08-18T21:18:22.514Z,74.10
2022-08-18T21:20:52.015Z,74.00
2022-08-18T21:23:33.807Z,73.90
2022-08-18T21:26:12.571Z,74.70
2022-08-18T21:28:44.832Z,76.20
2022-08-18T21:31:44.338Z,75.70
2022-08-18T21:34:35.583Z,77.10
2022-08-18T21:37:09.931Z,76.40
2022-08-18T21:39:58.429Z,75.80
2022-08-18T21:42:31.701Z,76.60
2022-08-18T21:45:00.824Z,76.40
2022-08-18T21:47:35.607Z,76.40
2022-08-18T21:50:18.736Z,76.80
2022-08-18T21:53:11.657Z,76.50
2022-08-18T21:55:51.414Z,77.30
2022-08-18T21:58:45.321Z,77.50
2022-08-18T22:01:25.706Z,77.70
2022-08-18T22:04:02.925Z,77.40
2022-08-18T22:06:41.374Z,77.10
2022-08-18T22:09:29.662Z,78.10
2022-08-18T22:12:49.812Z,78.30
2022-08-18T22:15:20.168Z,78.90
2022-08-18T22:18:25.820Z,78.20
2022-08-18T22:20:57.354Z,79.00
2022-08-18T22:23:57.736Z,78.20
2022-08-18T22:26:34.807Z,78.90
2022-08-18T22:29:13.454Z,78.80
2022-08-18T22:31:48.244Z,79.80
2022-08-18T22:34:27.151Z,80.50
2022-08-18T22:37:09.856Z,80.50
2022-08-18T22:39:48.015Z,80.50
2022-08-18T22:42:17.163Z,80.70
2022-08-18T22:44:44.628Z,80.10
2022-08-18T22:47:12.715Z,80.40
2022-08-18T22:49:40.175Z,79.90
2022-08-18T22:52:18.894Z,79.60
2022-08-18T22:54:46.276Z,79.70
2022-08-18T22:57:17.489Z,79.80
2022-08-18T22:59:46.883Z,79.80
2022-08-18T23:02:16.239Z,79.80
2022-08-18T23:04:49.322Z,79.90
2022-08-18T23:07:16.278Z,80.00
2022-08-18T23:09:43.523Z,80.50
2022-08-18T23:12:15.724Z,80.90
2022-08-18T23:14:46.083Z,81.20
2022-08-18T23:17:14.125Z,81.30
2022-08-18T23:19:41.283Z,81.70
2022-08-18T23:22:10.121Z,81.70
2022-08-18T23:24:38.021Z,82.00
2022-08-18T23:27:06.171Z,82.00
2022-08-18T23:29:36.843Z,82.10
2022-08-18T23:32:05.807Z,81.90
2022-08-18T23:34:35.291Z,82.00
2022-08-18T23:37:03.654Z,82.00
2022-08-18T23:39:34.957Z,82.10
2022-08-18T23:42:03.473Z,82.10
2022-08-18T23:44:31.324Z,82.40
2022-08-18T23:47:00.393Z,82.60
2022-08-18T23:49:30.338Z,82.90
2022-08-18T23:51:59.363Z,82.90
2022-08-18T23:54:31.229Z,83.10
2022-08-18T23:56:58.487Z,83.40
2022-08-18T23:59:27.156Z,83.60
